createdAt,value
2023-02-01T00:00:11.390Z,92.91
2023-02-01T00:02:41.696Z,92.97
2023-02-01T00:05:12.244Z,93.65
2023-02-01T00:07:40.422Z,94.21
2023-02-01T00:10:09.811Z,94.38
2023-02-01T00:12:37.730Z,94.90
2023-02-01T00:15:06.062Z,94.71
2023-02-01T00:17:33.822Z,94.80
2023-02-01T00:20:01.533Z,94.76
2023-02-01T00:22:30.634Z,94.69
2023-02-01T00:24:58.390Z,95.08
2023-02-01T00:27:26.173Z,94.76
2023-02-01T00:29:56.045Z,94.55
2023-02-01T00:32:23.984Z,94.67
2023-02-01T00:34:51.751Z,95.06
2023-02-01T00:37:19.449Z,94.74
2023-02-01T00:39:48.445Z,94.73
2023-02-01T00:42:16.169Z,95.02
2023-02-01T00:44:43.980Z,95.19
2023-02-01T00:47:11.661Z,95.27
2023-02-01T00:49:39.597Z,95.63
2023-02-01T00:52:07.421Z,95.59
2023-02-01T00:54:36.776Z,95.16
2023-02-01T00:57:05.898Z,95.54
2023-02-01T00:59:33.703Z,95.38
2023-02-01T01:02:01.495Z,95.39
2023-02-01T01:04:29.191Z,95.67
2023-02-01T01:06:56.937Z,95.44
2023-02-01T01:09:24.723Z,95.47
2023-02-01T01:11:53.698Z,95.33
2023-02-01T01:14:22.785Z,95.81
2023-02-01T01:16:51.517Z,95.90
2023-02-01T01:19:19.234Z,95.20
2023-02-01T01:21:46.959Z,95.30
2023-02-01T01:24:14.873Z,95.41
2023-02-01T01:26:42.763Z,95.43
2023-02-01T01:29:11.708Z,95.57
2023-02-01T01:31:40.959Z,95.85
2023-02-01T01:34:08.778Z,95.72
2023-02-01T01:36:36.501Z,95.73
2023-02-01T01:39:04.430Z,95.59
2023-02-01T01:41:34.243Z,95.70
2023-02-01T01:44:03.307Z,95.51
2023-02-01T01:46:33.926Z,95.56
2023-02-01T01:49:10.033Z,95.12
2023-02-01T01:51:41.136Z,94.95
2023-02-01T01:54:18.093Z,95.52
2023-02-01T01:56:51.675Z,95.42
2023-02-01T01:59:19.774Z,95.42
2023-02-01T02:01:48.277Z,95.35
2023-02-01T02:04:17.716Z,95.45
2023-02-01T02:06:50.007Z,95.38
2023-02-01T02:09:18.491Z,95.38
2023-02-01T02:11:46.312Z,95.43
2023-02-01T02:14:17.522Z,95.33
2023-02-01T02:17:18.265Z,95.07
2023-02-01T02:20:28.005Z,95.02
2023-02-01T02:23:23.623Z,94.96
2023-02-01T02:26:21.057Z,94.96
2023-02-01T02:29:22.231Z,94.80
2023-02-01T02:32:05.801Z,94.97
2023-02-01T02:34:39.826Z,94.79
2023-02-01T02:37:17.791Z,94.99
2023-02-01T02:39:56.561Z,95.21
2023-02-01T02:42:49.447Z,95.32
2023-02-01T02:45:43.412Z,95.12
2023-02-01T02:48:18.601Z,95.11
2023-02-01T02:51:10.730Z,94.97
2023-02-01T02:54:00.933Z,94.98
2023-02-01T02:56:47.792Z,94.89
2023-02-01T02:59:38.259Z,94.77
2023-02-01T03:02:24.378Z,94.75
2023-02-01T03:04:57.197Z,94.36
2023-02-01T03:07:59.214Z,94.45
2023-02-01T03:10:34.864Z,94.30
2023-02-01T03:13:07.140Z,94.66
2023-02-01T03:15:41.246Z,94.34
2023-02-01T03:18:15.249Z,94.24
2023-02-01T03:20:49.563Z,93.94
2023-02-01T03:23:24.030Z,93.83
2023-02-01T03:25:55.292Z,94.03
2023-02-01T03:28:25.393Z,93.90
2023-02-01T03:30:53.555Z,93.97
2023-02-01T03:33:25.149Z,94.05
2023-02-01T03:36:00.871Z,93.87
2023-02-01T03:38:35.117Z,93.70
2023-02-01T03:41:11.012Z,93.17
2023-02-01T03:43:50.009Z,93.28
2023-02-01T03:46:23.065Z,92.93
2023-02-01T03:48:53.110Z,92.60
2023-02-01T03:51:24.350Z,92.50
2023-02-01T03:53:55.831Z,92.42
2023-02-01T03:56:27.015Z,91.67
2023-02-01T03:59:00.768Z,91.26
2023-02-01T04:01:30.020Z,90.92
2023-02-01T04:03:58.697Z,91.09
2023-02-01T04:06:26.738Z,90.33
2023-02-01T04:08:55.906Z,90.37
2023-02-01T04:11:23.741Z,90.10
2023-02-01T04:13:51.467Z,89.61
2023-02-01T04:16:19.205Z,89.43
2023-02-01T04:18:46.956Z,89.27
2023-02-01T04:21:14.676Z,89.52
2023-02-01T04:23:42.398Z,89.67
2023-02-01T04:26:11.523Z,89.55
2023-02-01T04:28:39.342Z,89.03
2023-02-01T04:31:07.234Z,88.60
2023-02-01T04:33:35.224Z,88.66
2023-02-01T04:36:03.108Z,88.30
2023-02-01T04:38:33.040Z,87.76
2023-02-01T04:41:01.299Z,87.62
2023-02-01T04:43:30.344Z,87.95
2023-02-01T04:45:58.118Z,88.09
2023-02-01T04:48:25.849Z,87.93
2023-02-01T04:50:53.650Z,87.98
2023-02-01T04:53:21.419Z,88.65
2023-02-01T04:55:50.788Z,88.92
2023-02-01T04:58:18.544Z,88.13
2023-02-01T05:00:47.647Z,88.69
2023-02-01T05:03:15.482Z,88.76
2023-02-01T05:05:43.480Z,89.49
2023-02-01T05:08:11.448Z,91.18
2023-02-01T05:10:39.203Z,92.35
2023-02-01T05:13:24.486Z,92.34
2023-02-01T05:15:53.877Z,92.47
2023-02-01T05:18:21.616Z,92.87
2023-02-01T05:20:49.341Z,92.94
2023-02-01T05:23:17.168Z,92.83
2023-02-01T05:25:44.938Z,93.03
2023-02-01T05:28:12.675Z,92.86
2023-02-01T05:30:42.219Z,93.75
2023-02-01T05:33:11.530Z,93.59
2023-02-01T05:35:39.299Z,93.81
2023-02-01T05:38:07.031Z,93.54
2023-02-01T05:40:34.780Z,94.05
2023-02-01T05:43:02.594Z,94.05
2023-02-01T05:45:30.316Z,95.22
2023-02-01T05:47:58.123Z,95.40
2023-02-01T05:50:27.352Z,94.99
2023-02-01T05:52:55.088Z,95.22
2023-02-01T05:55:22.856Z,95.50
2023-02-01T05:57:50.621Z,95.63
2023-02-01T06:00:20.822Z,94.36
2023-02-01T06:02:49.974Z,94.37
2023-02-01T06:05:17.948Z,94.39
2023-02-01T06:07:47.052Z,94.17
2023-02-01T06:10:15.291Z,94.28
2023-02-01T06:12:43.174Z,93.98
2023-02-01T06:15:11.762Z,94.06
2023-02-01T06:17:42.188Z,94.04
2023-02-01T06:20:12.145Z,94.15
2023-02-01T06:22:39.986Z,94.35
2023-02-01T06:25:11.674Z,94.42
2023-02-01T06:27:39.707Z,94.57
2023-02-01T06:30:09.091Z,94.28
2023-02-01T06:32:36.881Z,94.41
2023-02-01T06:35:04.855Z,94.98
2023-02-01T06:37:32.603Z,94.73
2023-02-01T06:40:00.331Z,93.76
2023-02-01T06:42:29.423Z,92.58
2023-02-01T06:44:57.189Z,91.49
2023-02-01T06:47:24.914Z,91.50
2023-02-01T06:49:52.742Z,90.98
2023-02-01T06:52:20.469Z,90.59
2023-02-01T06:54:48.149Z,91.05
2023-02-01T06:57:16.999Z,90.19
2023-02-01T06:59:46.049Z,89.70
2023-02-01T07:02:13.991Z,88.72
2023-02-01T07:04:42.011Z,88.06
2023-02-01T07:07:09.889Z,87.37
2023-02-01T07:09:37.625Z,87.04
2023-02-01T07:12:05.614Z,87.99
2023-02-01T07:14:33.326Z,88.11
2023-02-01T07:17:02.524Z,88.51
2023-02-01T07:19:30.309Z,88.71
2023-02-01T07:21:58.126Z,89.37
2023-02-01T07:24:25.910Z,89.70
2023-02-01T07:26:53.742Z,89.90
2023-02-01T07:29:21.786Z,90.38
2023-02-01T07:31:49.585Z,90.42
2023-02-01T07:34:18.834Z,90.49
2023-02-01T07:36:46.834Z,89.85
2023-02-01T07:39:14.496Z,89.41
2023-02-01T07:41:42.193Z,88.91
2023-02-01T07:44:09.957Z,89.19
2023-02-01T07:46:39.718Z,89.52
2023-02-01T07:49:08.075Z,89.63
2023-02-01T07:51:38.008Z,89.46
2023-02-01T07:54:05.809Z,89.63
2023-02-01T07:56:33.623Z,89.43
2023-02-01T07:59:04.800Z,89.49
2023-02-01T08:01:31.601Z,89.30
2023-02-01T08:04:01.316Z,89.29
2023-02-01T08:06:30.502Z,89.03
2023-02-01T08:09:00.238Z,88.48
2023-02-01T08:11:28.688Z,88.28
2023-02-01T08:13:56.509Z,88.52
2023-02-01T08:16:25.445Z,88.53
2023-02-01T08:18:53.707Z,88.30
2023-02-01T08:21:24.976Z,88.09
2023-02-01T08:23:53.079Z,88.53
2023-02-01T08:26:24.932Z,88.47
2023-02-01T08:28:55.401Z,88.31
2023-02-01T08:31:25.321Z,87.59
2023-02-01T08:33:55.462Z,87.19
2023-02-01T08:36:24.141Z,87.04
2023-02-01T08:38:52.298Z,87.24
2023-02-01T08:41:23.366Z,86.56
2023-02-01T08:43:51.102Z,86.37
2023-02-01T08:46:19.715Z,86.17
2023-02-01T08:48:48.497Z,85.50
2023-02-01T08:51:18.472Z,85.33
2023-02-01T08:53:46.455Z,85.68
2023-02-01T08:56:15.999Z,84.75
2023-02-01T08:58:45.368Z,83.64
2023-02-01T09:01:16.271Z,82.83
2023-02-01T09:03:44.367Z,82.54
2023-02-01T09:06:14.565Z,80.97
2023-02-01T09:08:42.755Z,78.69
2023-02-01T09:11:14.278Z,77.52
2023-02-01T09:13:42.810Z,76.69
2023-02-01T09:16:12.210Z,73.84
2023-02-01T09:18:50.438Z,73.45
2023-02-01T09:21:28.025Z,74.16
2023-02-01T09:23:55.751Z,73.23
2023-02-01T09:26:31.399Z,72.61
2023-02-01T09:29:00.170Z,73.01
2023-02-01T09:31:29.393Z,72.74
2023-02-01T09:33:57.219Z,73.93
2023-02-01T09:36:25.389Z,74.50
2023-02-01T09:38:53.856Z,74.18
2023-02-01T09:41:32.678Z,74.47
2023-02-01T09:44:10.360Z,75.22
2023-02-01T09:46:39.564Z,74.13
2023-02-01T09:49:14.605Z,74.32
2023-02-01T09:51:47.614Z,74.50
2023-02-01T09:54:19.213Z,75.17
2023-02-01T09:56:50.605Z,74.38
2023-02-01T09:59:31.759Z,73.60
2023-02-01T10:02:03.311Z,75.18
2023-02-01T10:04:31.706Z,72.77
2023-02-01T10:07:12.916Z,73.83
2023-02-01T10:09:52.837Z,74.85
2023-02-01T10:12:59.365Z,74.98
2023-02-01T10:15:35.008Z,74.88
2023-02-01T10:18:22.766Z,75.45
2023-02-01T10:21:03.684Z,75.83
2023-02-01T10:23:52.532Z,75.28
2023-02-01T10:26:22.311Z,75.79
2023-02-01T10:28:52.857Z,74.85
2023-02-01T10:31:23.184Z,75.19
2023-02-01T10:33:57.586Z,75.24
2023-02-01T10:36:31.148Z,76.10
2023-02-01T10:39:00.234Z,75.47
2023-02-01T10:41:33.294Z,75.48
2023-02-01T10:44:05.323Z,75.74
2023-02-01T10:46:34.059Z,75.58
2023-02-01T10:49:07.907Z,75.29
2023-02-01T10:51:46.063Z,75.17
2023-02-01T10:54:18.679Z,74.59
2023-02-01T10:56:47.460Z,74.35
2023-02-01T10:59:18.535Z,74.40
2023-02-01T11:01:48.716Z,74.00
2023-02-01T11:04:21.053Z,73.86
2023-02-01T11:06:51.910Z,74.13
2023-02-01T11:09:25.674Z,74.70
2023-02-01T11:11:59.942Z,72.63
2023-02-01T11:14:40.430Z,72.48
2023-02-01T11:17:29.250Z,73.12
2023-02-01T11:20:03.043Z,71.82
2023-02-01T11:22:31.194Z,71.12
2023-02-01T11:25:01.364Z,71.82
2023-02-01T11:27:29.770Z,71.88
2023-02-01T11:30:03.262Z,71.46
2023-02-01T11:32:32.217Z,71.73
2023-02-01T11:35:04.705Z,70.75
2023-02-01T11:37:37.209Z,71.85
2023-02-01T11:40:24.938Z,72.73
2023-02-01T11:42:58.014Z,73.21
2023-02-01T11:45:29.726Z,72.92
2023-02-01T11:47:58.769Z,72.82
2023-02-01T11:50:35.280Z,72.77
2023-02-01T11:53:31.412Z,72.78
2023-02-01T11:56:10.369Z,73.73
2023-02-01T11:58:56.390Z,73.26
2023-02-01T12:01:40.540Z,72.10
2023-02-01T12:04:32.900Z,71.17
2023-02-01T12:07:10.789Z,70.81
2023-02-01T12:09:54.716Z,70.90
2023-02-01T12:12:28.037Z,71.11
2023-02-01T12:15:17.633Z,71.72
2023-02-01T12:17:59.013Z,72.20
2023-02-01T12:20:44.106Z,71.30
2023-02-01T12:23:27.916Z,71.36
2023-02-01T12:26:14.998Z,71.72
2023-02-01T12:29:01.366Z,71.31
2023-02-01T12:31:47.184Z,71.15
2023-02-01T12:34:31.306Z,71.62
2023-02-01T12:37:09.893Z,71.16
2023-02-01T12:39:43.000Z,71.10
2023-02-01T12:42:17.156Z,71.66
2023-02-01T12:44:51.165Z,71.88
2023-02-01T12:47:25.106Z,72.13
2023-02-01T12:50:01.235Z,71.73
2023-02-01T12:52:37.386Z,72.13
2023-02-01T12:55:18.253Z,70.47
2023-02-01T12:57:51.579Z,70.94
2023-02-01T13:00:26.237Z,70.98
2023-02-01T13:03:01.702Z,70.54
2023-02-01T13:05:33.417Z,71.41
2023-02-01T13:08:05.321Z,71.42
2023-02-01T13:10:38.605Z,70.87
2023-02-01T13:13:10.956Z,70.54
2023-02-01T13:15:44.816Z,70.13
2023-02-01T13:18:18.887Z,70.57
2023-02-01T13:20:55.399Z,69.85
2023-02-01T13:23:29.076Z,70.15
2023-02-01T13:25:58.476Z,69.84
2023-02-01T13:28:29.875Z,69.12
2023-02-01T13:31:17.352Z,69.56
2023-02-01T13:34:00.023Z,69.33
2023-02-01T13:37:01.001Z,69.09
2023-02-01T13:40:01.300Z,68.74
2023-02-01T13:42:33.189Z,68.07
2023-02-01T13:45:02.776Z,68.46
2023-02-01T13:47:33.737Z,67.91
2023-02-01T13:50:04.149Z,68.12
2023-02-01T13:52:40.337Z,67.75
2023-02-01T13:55:27.860Z,68.78
2023-02-01T13:58:18.405Z,67.98
2023-02-01T14:00:46.532Z,68.57
2023-02-01T14:03:18.892Z,68.49
2023-02-01T14:06:18.523Z,67.47
2023-02-01T14:09:07.630Z,67.08
2023-02-01T14:11:42.764Z,66.75
2023-02-01T14:14:47.125Z,67.68
2023-02-01T14:17:43.489Z,66.86
2023-02-01T14:20:44.664Z,66.70
2023-02-01T14:23:16.843Z,66.67
2023-02-01T14:25:46.105Z,66.05
2023-02-01T14:28:27.068Z,65.68
2023-02-01T14:30:56.762Z,66.13
2023-02-01T14:33:29.032Z,66.33
2023-02-01T14:36:04.552Z,65.22
2023-02-01T14:38:33.949Z,65.28
2023-02-01T14:41:28.288Z,65.09
2023-02-01T14:44:25.581Z,65.06
2023-02-01T14:47:28.833Z,64.32
2023-02-01T14:50:05.564Z,65.89
2023-02-01T14:52:39.360Z,65.73
2023-02-01T14:55:12.294Z,65.53
2023-02-01T14:57:41.780Z,65.41
2023-02-01T15:00:20.153Z,65.78
2023-02-01T15:02:50.504Z,66.13
2023-02-01T15:05:32.621Z,65.77
2023-02-01T15:08:06.889Z,65.78
2023-02-01T15:10:41.943Z,65.78
2023-02-01T15:13:21.740Z,65.84
2023-02-01T15:16:06.133Z,66.39
2023-02-01T15:18:34.786Z,66.57
2023-02-01T15:21:09.661Z,66.99
2023-02-01T15:24:12.335Z,66.46
2023-02-01T15:26:40.410Z,66.72
2023-02-01T15:29:13.111Z,66.36
2023-02-01T15:31:43.885Z,66.79
2023-02-01T15:34:12.086Z,67.06
2023-02-01T15:36:56.634Z,67.53
2023-02-01T15:39:31.718Z,67.21
2023-02-01T15:42:03.013Z,67.31
2023-02-01T15:44:35.634Z,67.69
2023-02-01T15:47:10.740Z,67.39
2023-02-01T15:49:41.473Z,68.03
2023-02-01T15:52:24.515Z,67.54
2023-02-01T15:54:54.903Z,67.92
2023-02-01T15:57:31.304Z,68.67
2023-02-01T16:00:00.248Z,68.42
2023-02-01T16:02:33.135Z,68.47
2023-02-01T16:05:01.071Z,69.13
2023-02-01T16:07:33.529Z,69.33
2023-02-01T16:10:07.301Z,69.28
2023-02-01T16:12:47.749Z,69.68
2023-02-01T16:15:16.423Z,70.08
2023-02-01T16:17:44.769Z,70.16
2023-02-01T16:20:14.240Z,70.43
2023-02-01T16:22:43.372Z,70.77
2023-02-01T16:25:11.316Z,70.54
2023-02-01T16:27:39.095Z,71.12
2023-02-01T16:30:10.824Z,71.49
2023-02-01T16:32:40.125Z,71.18
2023-02-01T16:35:20.114Z,71.17
2023-02-01T16:37:49.670Z,71.79
2023-02-01T16:40:18.197Z,71.66
2023-02-01T16:42:49.763Z,71.74
2023-02-01T16:45:17.834Z,72.09
2023-02-01T16:47:49.051Z,72.02
2023-02-01T16:50:23.365Z,72.21
2023-02-01T16:52:54.281Z,72.61
2023-02-01T16:55:24.049Z,72.49
2023-02-01T16:57:52.037Z,72.36
2023-02-01T17:00:24.948Z,72.33
2023-02-01T17:02:53.519Z,72.32
2023-02-01T17:05:21.450Z,72.84
2023-02-01T17:07:49.322Z,72.98
2023-02-01T17:10:33.408Z,72.57
2023-02-01T17:13:02.091Z,72.77
2023-02-01T17:15:34.868Z,72.96
2023-02-01T17:18:03.108Z,72.42
2023-02-01T17:20:33.648Z,72.47
2023-02-01T17:23:01.797Z,72.76
2023-02-01T17:25:32.883Z,72.15
2023-02-01T17:28:00.933Z,72.49
2023-02-01T17:30:29.292Z,73.13
2023-02-01T17:32:57.122Z,72.92
2023-02-01T17:35:28.146Z,72.91
2023-02-01T17:37:56.602Z,73.18
2023-02-01T17:40:24.969Z,72.42
2023-02-01T17:42:57.871Z,72.62
2023-02-01T17:45:29.838Z,72.42
2023-02-01T17:47:58.429Z,72.59
2023-02-01T17:50:29.629Z,72.41
2023-02-01T17:52:57.393Z,72.72
2023-02-01T17:55:27.053Z,72.86
2023-02-01T17:57:56.303Z,72.77
2023-02-01T18:00:24.201Z,72.42
2023-02-01T18:02:52.177Z,72.59
2023-02-01T18:05:24.226Z,72.29
2023-02-01T18:07:52.285Z,72.08
2023-02-01T18:10:20.382Z,72.05
2023-02-01T18:12:48.303Z,71.80
2023-02-01T18:15:23.788Z,71.80
2023-02-01T18:17:51.797Z,71.57
2023-02-01T18:20:23.096Z,72.21
2023-02-01T18:22:51.517Z,72.81
2023-02-01T18:25:22.080Z,72.96
2023-02-01T18:27:52.282Z,72.99
2023-02-01T18:30:22.729Z,73.21
2023-02-01T18:32:50.967Z,73.17
2023-02-01T18:35:24.584Z,73.64
2023-02-01T18:37:55.156Z,73.74
2023-02-01T18:40:25.688Z,73.30
2023-02-01T18:42:53.497Z,73.89
2023-02-01T18:45:31.001Z,73.91
2023-02-01T18:47:59.704Z,74.28
2023-02-01T18:50:28.399Z,74.31
2023-02-01T18:52:57.094Z,74.29
2023-02-01T18:55:26.249Z,74.21
2023-02-01T18:57:54.303Z,74.36
2023-02-01T19:00:23.227Z,74.50
2023-02-01T19:02:52.497Z,74.60
2023-02-01T19:05:20.508Z,74.33
2023-02-01T19:07:48.617Z,74.28
2023-02-01T19:10:17.795Z,74.28
2023-02-01T19:12:45.764Z,74.34
2023-02-01T19:15:15.747Z,74.72
2023-02-01T19:17:45.568Z,74.68
2023-02-01T19:20:16.949Z,75.03
2023-02-01T19:22:44.791Z,75.01
2023-02-01T19:25:15.719Z,74.73
2023-02-01T19:27:43.620Z,75.17
2023-02-01T19:30:12.977Z,75.12
2023-02-01T19:32:40.822Z,75.33
2023-02-01T19:35:10.860Z,75.19
2023-02-01T19:37:41.340Z,75.00
2023-02-01T19:40:10.607Z,75.01
2023-02-01T19:42:38.682Z,75.33
2023-02-01T19:45:07.625Z,75.22
2023-02-01T19:47:35.584Z,75.29
2023-02-01T19:50:06.961Z,75.49
2023-02-01T19:52:35.329Z,75.80
2023-02-01T19:55:05.465Z,75.39
2023-02-01T19:57:33.247Z,75.63
2023-02-01T20:00:00.993Z,75.65
2023-02-01T20:02:28.856Z,75.66
2023-02-01T20:04:56.749Z,75.32
2023-02-01T20:07:24.500Z,75.46
2023-02-01T20:09:52.278Z,75.48
2023-02-01T20:12:21.406Z,75.28
2023-02-01T20:14:49.223Z,75.04
2023-02-01T20:17:17.989Z,75.17
2023-02-01T20:19:45.859Z,75.45
2023-02-01T20:22:13.908Z,75.18
2023-02-01T20:24:41.707Z,75.67
2023-02-01T20:27:12.142Z,75.06
2023-02-01T20:29:42.153Z,75.11
2023-02-01T20:32:10.021Z,74.86
2023-02-01T20:34:38.115Z,75.33
2023-02-01T20:37:05.979Z,74.94
2023-02-01T20:39:33.851Z,75.31
2023-02-01T20:42:01.689Z,76.06
2023-02-01T20:44:29.500Z,76.44
2023-02-01T20:46:59.058Z,76.44
2023-02-01T20:49:26.861Z,76.81
2023-02-01T20:51:54.683Z,76.65
2023-02-01T20:54:22.984Z,76.37
2023-02-01T20:56:50.887Z,76.24
2023-02-01T20:59:18.678Z,76.42
2023-02-01T21:01:53.078Z,76.26
2023-02-01T21:04:27.374Z,76.42
2023-02-01T21:06:55.338Z,76.55
2023-02-01T21:09:23.837Z,76.57
2023-02-01T21:11:52.024Z,76.64
2023-02-01T21:14:20.571Z,76.64
2023-02-01T21:16:48.593Z,76.38
2023-02-01T21:19:17.594Z,76.50
2023-02-01T21:21:46.637Z,76.47
2023-02-01T21:24:14.385Z,76.54
2023-02-01T21:26:42.503Z,76.89
2023-02-01T21:29:11.813Z,77.04
2023-02-01T21:31:41.002Z,77.35
2023-02-01T21:34:09.753Z,77.73
2023-02-01T21:36:37.770Z,77.33
2023-02-01T21:39:10.811Z,77.43
2023-02-01T21:41:56.614Z,77.24
2023-02-01T21:44:24.945Z,77.21
2023-02-01T21:46:52.708Z,77.10
2023-02-01T21:49:20.470Z,77.60
2023-02-01T21:51:48.552Z,76.82
2023-02-01T21:54:17.847Z,77.13
2023-02-01T21:56:45.604Z,77.02
2023-02-01T21:59:13.467Z,77.35
2023-02-01T22:01:42.361Z,76.71
2023-02-01T22:04:10.327Z,77.28
2023-02-01T22:06:41.318Z,77.25
2023-02-01T22:09:15.860Z,77.16
2023-02-01T22:11:45.403Z,77.12
2023-02-01T22:14:14.111Z,77.03
2023-02-01T22:16:42.331Z,77.33
2023-02-01T22:19:12.447Z,77.65
2023-02-01T22:21:42.087Z,77.73
2023-02-01T22:24:11.446Z,77.37
2023-02-01T22:26:39.679Z,77.08
2023-02-01T22:29:10.081Z,76.94
2023-02-01T22:31:38.020Z,77.02
2023-02-01T22:34:05.830Z,77.01
2023-02-01T22:36:33.880Z,76.57
2023-02-01T22:39:01.665Z,76.63
2023-02-01T22:41:29.362Z,76.25
2023-02-01T22:43:57.110Z,76.70
2023-02-01T22:46:26.412Z,76.50
2023-02-01T22:48:54.265Z,76.54
2023-02-01T22:51:24.122Z,76.74
2023-02-01T22:53:57.141Z,76.91
2023-02-01T22:56:26.188Z,76.28
2023-02-01T22:58:58.536Z,77.07
2023-02-01T23:01:28.261Z,77.02
2023-02-01T23:04:00.271Z,76.78
2023-02-01T23:06:29.189Z,76.95
2023-02-01T23:08:58.370Z,77.30
2023-02-01T23:11:27.242Z,77.67
2023-02-01T23:13:55.548Z,77.50
2023-02-01T23:16:23.858Z,77.57
2023-02-01T23:18:53.119Z,77.49
2023-02-01T23:21:22.566Z,77.69
2023-02-01T23:23:52.038Z,78.34
2023-02-01T23:26:20.557Z,78.56
2023-02-01T23:28:50.275Z,78.84
2023-02-01T23:31:18.193Z,78.76
2023-02-01T23:33:49.351Z,79.04
2023-02-01T23:36:18.478Z,78.93
2023-02-01T23:38:47.116Z,79.30
2023-02-01T23:41:16.334Z,78.87
2023-02-01T23:43:59.897Z,79.09
2023-02-01T23:46:30.724Z,79.42
2023-02-01T23:48:58.868Z,78.49
2023-02-01T23:51:28.688Z,78.77
2023-02-01T23:53:56.859Z,79.52
2023-02-01T23:56:31.310Z,79.56
2023-02-01T23:58:59.283Z,79.18
